ADDS METAR Data INFO
IDs: Format: Raw Decoded Include TAF

Data at: 1249 UTC 19 Oct 2017

KDIJ 191156Z AUTO 00000KT 10SM CLR 03/M06 A3007 RMK AO2 SLP162 6//// 7//// T00281056 10067 20011 55009
KDIJ 191056Z AUTO 07006KT 10SM CLR 03/M05 A3007 RMK AO2 SLP161 T00281050
KDIJ 190956Z AUTO 16004KT 10SM CLR 03/M06 A3008 RMK AO2 SLP161 T00281056
KDIJ 190856Z AUTO 09003KT 10SM CLR 02/M05 A3010 RMK AO2 SLP171 6//// T00221050
KDIJ 190756Z AUTO 09006KT 10SM CLR 02/M04 RMK AO2 SLPNO T00221044 $
KDIJ 190656Z AUTO 16008KT 10SM CLR 04/M04 A3013 RMK AO2 SLP178 T00441044 401720033
KDIJ 190556Z AUTO 15007KT 10SM CLR 04/M04 A3015 RMK AO2 SLP185 6//// T00441044 10144 20033 56007
KDIJ 190456Z AUTO 13005KT 10SM CLR 06/M04 A3015 RMK AO2 SLP188 T00561039
KDIJ 190356Z AUTO 16003KT 10SM CLR 04/M03 A3016 RMK AO2 SLP199 T00391033
KDIJ 190256Z AUTO 10006KT 10SM CLR 06/M03 A3017 RMK AO2 SLP208 6//// T00561033 58001
KDIJ 190156Z AUTO 09008KT 10SM CLR 06/M03 A3018 RMK AO2 SLP212 T00611028
KDIJ 190056Z AUTO 17005KT 10SM CLR 10/M06 A3017 RMK AO2 SLP203 T01001056 TSNO
KDIJ 182256Z AUTO 23009KT 10SM CLR 15/M04 A3019 RMK AO2 SLP197 T01501044 TSNO
KDIJ 182156Z AUTO 23009KT 10SM CLR 17/M04 A3019 RMK AO2 SLP186 T01721039
KDIJ 182056Z AUTO 20012KT 10SM CLR 17/M03 A3021 RMK AO2 SLP195 T01671033 58010
KDIJ 181956Z AUTO 21010KT 10SM CLR 16/M04 A3023 RMK AO2 SLP203 T01561044
KDIJ 181856Z AUTO 19010G17KT 10SM CLR 15/M06 A3025 RMK AO2 SLP206 T01501056
KDIJ 181756Z AUTO 20011KT 10SM CLR 14/M04 A3025 RMK AO2 SLP213 6//// T01391044 10139 20039 50003
KDIJ 181656Z AUTO 18015G18KT 10SM CLR 13/M04 A3025 RMK AO2 SLP211 T01281044
KDIJ 181556Z AUTO 17016G20KT 10SM CLR 11/M05 A3024 RMK AO2 SLP210 T01111050
KDIJ 181456Z AUTO 16007KT 10SM CLR 08/M06 A3024 RMK AO2 SLP218 6//// T00781061 53011
KDIJ 181356Z AUTO 16011KT 10SM CLR 06/M06 A3021 RMK AO2 SLP211 T00611061
KDIJ 181256Z AUTO 16009KT 10SM CLR 05/M06 A3020 RMK AO2 SLP214 T00501061
KDIJ 181156Z AUTO 16009KT 10SM CLR 04/M07 A3020 RMK AO2 SLP204 6//// 7//// T00391067 10100 20039 53000
KDIJ 181056Z AUTO 15007KT 10SM CLR 05/M07 A3020 RMK AO2 SLP196 T00501067
KDIJ 180956Z AUTO 17009KT 10SM CLR 08/M08 A3019 RMK AO2 SLP187 T00781078
KDIJ 180856Z AUTO 16007KT 10SM CLR 07/M07 A3020 RMK AO2 SLP191 T00721072 51003
KDIJ 180756Z AUTO 17010KT 10SM CLR 07/M07 A3020 RMK AO2 SLP187 T00721072
KDIJ 180656Z AUTO 17010KT 10SM CLR 10/M08 A3019 RMK AO2 SLP183 T01001083 401831039
KDIJ 180556Z AUTO 15010KT 10SM CLR 08/M08 A3019 RMK AO2 SLP187 6//// T00831083 10144 20072 53009
KDIJ 180456Z AUTO 13009KT 10SM CLR 10/M08 A3018 RMK AO2 SLP183 T01001083
KDIJ 180356Z AUTO 11008KT 10SM CLR 11/M09 A3016 RMK AO2 SLP183 T01111089
KDIJ 180256Z AUTO 19008KT 10SM CLR 11/M08 A3016 RMK AO2 SLP197 6//// T01111083 50000
KDIJ 180156Z AUTO 20008KT 10SM CLR 12/M08 A3016 RMK AO2 SLP211 T01171078
KDIJ 180056Z AUTO 17007KT 10SM CLR 10/M06 A3016 RMK AO2 SLP211 T01001061